Startpagina
METAR-TAF:

METAR-TAF

Vliegvelden :

Aeroporto di Torino

Turijn, Italië

breedte: 45-13N, lengte: 007-39E, hoogte: 301 m

Actueel weer

Dit bericht is 28 minuten geleden gemaakt, om 18:50 UTC
Wind 2 kt uit het noordwesten
Temperatuur 11°C
Vochtigheid 71%
Druk 1023 hPa
Zicht: 8000 m

METAR: LIMF 231850Z 32002KT 8000 NSC 11/06 Q1023

Tijdstip: 20:18 (19:18 UTC)

Verwachting

Dit bericht is 2 uur en het 18 minuten geleden gemaakt, om 17:00 UTC
Verwachting geldig van 23 om 18 UTC tot 24 om 18 UTC
Wind 5 kt uit variabele richting
Zicht: 4000 m
nevel
Kans 30% :
Tijdelijke
van 24 om 00 UTC tot 24 om 06 UTC
Zicht: 1200 m
mistbanken
Wijzigt naar
van 24 om 08 UTC tot 24 om 10 UTC
Zicht: 6000 m

TAF: LIMF 231700Z 2318/2418 VRB05KT 4000 BR NSC PROB30 TEMPO 2400/2406 1200 BCFG BECMG 2408/2410 6000

Waarnemingen en weersverwachtingen van meer dan 4000 vliegvelden (METAR en TAF).

De beschikbare stations zijn de gele en rode punten op de kaart.

Ga met uw muis naar het station om de naam te zien.

Klik dan om waarnemingen en weersverwachtingen te zien.

kaart wijzigen: klik op de groene knoppen met een zwart kruis om in te zoomen, op de groene knop met een streepje om uit te zoomen of op de groene pijlen voor aangrenzende kaarten.


METAR-TAF: